sensor_id;sensor_type;location;lat;lon;timestamp;P1;durP1;ratioP1;P2;durP2;ratioP2
3747;SDS011;1889;50.058;8.688;2022-12-07T00:01:45;7.33;;;6.17;;
3747;SDS011;1889;50.058;8.688;2022-12-07T00:04:16;11.40;;;6.17;;
3747;SDS011;1889;50.058;8.688;2022-12-07T00:06:47;9.50;;;6.05;;
3747;SDS011;1889;50.058;8.688;2022-12-07T00:09:19;9.55;;;6.95;;
3747;SDS011;1889;50.058;8.688;2022-12-07T00:11:49;8.33;;;6.35;;
3747;SDS011;1889;50.058;8.688;2022-12-07T00:14:19;10.32;;;5.90;;
3747;SDS011;1889;50.058;8.688;2022-12-07T00:16:50;9.35;;;5.92;;
3747;SDS011;1889;50.058;8.688;2022-12-07T00:19:20;8.88;;;6.30;;
3747;SDS011;1889;50.058;8.688;2022-12-07T00:21:49;7.42;;;5.30;;
3747;SDS011;1889;50.058;8.688;2022-12-07T00:24:19;10.05;;;6.55;;
3747;SDS011;1889;50.058;8.688;2022-12-07T00:26:48;9.85;;;6.37;;
3747;SDS011;1889;50.058;8.688;2022-12-07T00:29:18;8.40;;;5.72;;
3747;SDS011;1889;50.058;8.688;2022-12-07T00:31:49;7.70;;;5.92;;
3747;SDS011;1889;50.058;8.688;2022-12-07T00:34:19;9.13;;;6.35;;
3747;SDS011;1889;50.058;8.688;2022-12-07T00:36:50;9.28;;;5.92;;
3747;SDS011;1889;50.058;8.688;2022-12-07T00:39:19;8.30;;;6.30;;
3747;SDS011;1889;50.058;8.688;2022-12-07T00:41:48;8.13;;;6.05;;
3747;SDS011;1889;50.058;8.688;2022-12-07T00:44:18;8.70;;;5.90;;
3747;SDS011;1889;50.058;8.688;2022-12-07T00:46:47;9.03;;;6.25;;
3747;SDS011;1889;50.058;8.688;2022-12-07T00:49:16;8.75;;;6.45;;
3747;SDS011;1889;50.058;8.688;2022-12-07T00:51:47;8.13;;;6.00;;
3747;SDS011;1889;50.058;8.688;2022-12-07T00:54:17;10.05;;;6.35;;
3747;SDS011;1889;50.058;8.688;2022-12-07T00:56:46;10.05;;;6.28;;
3747;SDS011;1889;50.058;8.688;2022-12-07T00:59:16;9.85;;;6.58;;
3747;SDS011;1889;50.058;8.688;2022-12-07T01:01:45;9.60;;;6.80;;
3747;SDS011;1889;50.058;8.688;2022-12-07T01:04:14;9.05;;;6.53;;
3747;SDS011;1889;50.058;8.688;2022-12-07T01:06:44;9.03;;;6.12;;
3747;SDS011;1889;50.058;8.688;2022-12-07T01:09:13;10.70;;;6.67;;
3747;SDS011;1889;50.058;8.688;2022-12-07T01:11:42;8.23;;;6.17;;
3747;SDS011;1889;50.058;8.688;2022-12-07T01:14:11;8.80;;;6.25;;
3747;SDS011;1889;50.058;8.688;2022-12-07T01:16:41;10.53;;;6.30;;
3747;SDS011;1889;50.058;8.688;2022-12-07T01:19:10;11.28;;;6.85;;
3747;SDS011;1889;50.058;8.688;2022-12-07T01:21:39;9.45;;;6.65;;
3747;SDS011;1889;50.058;8.688;2022-12-07T01:24:09;12.88;;;6.70;;
3747;SDS011;1889;50.058;8.688;2022-12-07T01:26:39;8.43;;;6.40;;
3747;SDS011;1889;50.058;8.688;2022-12-07T01:29:08;9.03;;;5.97;;
3747;SDS011;1889;50.058;8.688;2022-12-07T01:31:38;8.78;;;6.28;;
3747;SDS011;1889;50.058;8.688;2022-12-07T01:34:07;9.40;;;6.40;;
3747;SDS011;1889;50.058;8.688;2022-12-07T01:36:37;10.75;;;6.70;;
3747;SDS011;1889;50.058;8.688;2022-12-07T01:39:06;9.03;;;6.58;;
3747;SDS011;1889;50.058;8.688;2022-12-07T01:41:38;8.93;;;6.65;;
3747;SDS011;1889;50.058;8.688;2022-12-07T01:44:12;10.10;;;6.75;;
3747;SDS011;1889;50.058;8.688;2022-12-07T01:46:50;8.73;;;6.03;;
3747;SDS011;1889;50.058;8.688;2022-12-07T01:54:53;9.28;;;5.95;;
3747;SDS011;1889;50.058;8.688;2022-12-07T01:57:25;8.63;;;5.80;;
3747;SDS011;1889;50.058;8.688;2022-12-07T01:59:55;7.92;;;6.03;;
3747;SDS011;1889;50.058;8.688;2022-12-07T02:02:30;12.50;;;6.30;;
3747;SDS011;1889;50.058;8.688;2022-12-07T02:05:04;10.55;;;5.85;;
3747;SDS011;1889;50.058;8.688;2022-12-07T02:07:36;8.58;;;5.80;;
3747;SDS011;1889;50.058;8.688;2022-12-07T02:10:13;8.33;;;5.87;;
3747;SDS011;1889;50.058;8.688;2022-12-07T02:12:58;8.13;;;6.08;;
3747;SDS011;1889;50.058;8.688;2022-12-07T02:15:51;10.23;;;5.97;;
3747;SDS011;1889;50.058;8.688;2022-12-07T02:21:21;7.53;;;5.45;;
3747;SDS011;1889;50.058;8.688;2022-12-07T02:26:40;8.70;;;4.92;;
3747;SDS011;1889;50.058;8.688;2022-12-07T02:29:10;7.62;;;5.37;;
3747;SDS011;1889;50.058;8.688;2022-12-07T02:32:06;7.42;;;5.17;;
3747;SDS011;1889;50.058;8.688;2022-12-07T02:37:17;8.15;;;5.12;;
3747;SDS011;1889;50.058;8.688;2022-12-07T02:39:44;10.10;;;6.03;;
3747;SDS011;1889;50.058;8.688;2022-12-07T02:42:19;7.45;;;4.85;;
3747;SDS011;1889;50.058;8.688;2022-12-07T02:44:50;8.90;;;5.72;;
3747;SDS011;1889;50.058;8.688;2022-12-07T02:47:20;8.55;;;5.75;;
3747;SDS011;1889;50.058;8.688;2022-12-07T02:49:52;7.28;;;5.35;;
3747;SDS011;1889;50.058;8.688;2022-12-07T02:52:21;8.13;;;5.05;;
3747;SDS011;1889;50.058;8.688;2022-12-07T02:54:51;7.03;;;5.17;;
3747;SDS011;1889;50.058;8.688;2022-12-07T03:00:08;6.60;;;5.00;;
3747;SDS011;1889;50.058;8.688;2022-12-07T03:02:43;8.10;;;5.50;;
3747;SDS011;1889;50.058;8.688;2022-12-07T03:05:25;7.20;;;5.47;;
3747;SDS011;1889;50.058;8.688;2022-12-07T03:08:26;8.08;;;5.80;;
3747;SDS011;1889;50.058;8.688;2022-12-07T03:11:16;6.75;;;4.42;;
3747;SDS011;1889;50.058;8.688;2022-12-07T03:13:51;7.62;;;5.15;;
3747;SDS011;1889;50.058;8.688;2022-12-07T03:16:26;6.47;;;4.65;;
3747;SDS011;1889;50.058;8.688;2022-12-07T03:21:57;7.78;;;4.40;;
3747;SDS011;1889;50.058;8.688;2022-12-07T03:24:24;7.97;;;4.65;;
3747;SDS011;1889;50.058;8.688;2022-12-07T03:26:59;6.20;;;4.67;;
3747;SDS011;1889;50.058;8.688;2022-12-07T03:29:38;5.10;;;3.92;;
3747;SDS011;1889;50.058;8.688;2022-12-07T03:32:21;7.28;;;4.45;;
3747;SDS011;1889;50.058;8.688;2022-12-07T03:34:48;7.87;;;5.65;;
3747;SDS011;1889;50.058;8.688;2022-12-07T03:37:28;7.22;;;4.83;;
3747;SDS011;1889;50.058;8.688;2022-12-07T03:40:04;7.00;;;4.35;;
3747;SDS011;1889;50.058;8.688;2022-12-07T03:42:50;6.83;;;4.92;;
3747;SDS011;1889;50.058;8.688;2022-12-07T03:45:21;6.95;;;4.37;;
3747;SDS011;1889;50.058;8.688;2022-12-07T03:48:56;5.87;;;4.33;;
3747;SDS011;1889;50.058;8.688;2022-12-07T03:50:53;6.03;;;3.83;;
3747;SDS011;1889;50.058;8.688;2022-12-07T03:53:30;6.60;;;4.72;;
3747;SDS011;1889;50.058;8.688;2022-12-07T03:56:00;5.95;;;4.80;;
3747;SDS011;1889;50.058;8.688;2022-12-07T03:58:30;11.75;;;4.53;;
3747;SDS011;1889;50.058;8.688;2022-12-07T04:01:01;7.08;;;4.62;;
3747;SDS011;1889;50.058;8.688;2022-12-07T04:03:30;7.78;;;4.60;;
3747;SDS011;1889;50.058;8.688;2022-12-07T04:06:00;6.37;;;4.37;;
3747;SDS011;1889;50.058;8.688;2022-12-07T04:08:29;6.33;;;4.30;;
3747;SDS011;1889;50.058;8.688;2022-12-07T04:10:59;8.45;;;4.10;;
3747;SDS011;1889;50.058;8.688;2022-12-07T04:13:29;5.70;;;4.58;;
3747;SDS011;1889;50.058;8.688;2022-12-07T04:16:00;6.12;;;4.30;;
3747;SDS011;1889;50.058;8.688;2022-12-07T04:18:29;5.67;;;4.25;;
3747;SDS011;1889;50.058;8.688;2022-12-07T04:20:58;7.53;;;4.60;;
3747;SDS011;1889;50.058;8.688;2022-12-07T04:23:28;7.65;;;4.80;;
3747;SDS011;1889;50.058;8.688;2022-12-07T04:25:57;7.67;;;4.95;;
3747;SDS011;1889;50.058;8.688;2022-12-07T04:28:26;8.73;;;4.87;;
3747;SDS011;1889;50.058;8.688;2022-12-07T04:30:55;6.85;;;4.17;;
3747;SDS011;1889;50.058;8.688;2022-12-07T04:33:25;5.95;;;4.10;;
3747;SDS011;1889;50.058;8.688;2022-12-07T04:35:54;6.05;;;4.00;;
3747;SDS011;1889;50.058;8.688;2022-12-07T04:38:23;7.30;;;4.70;;
3747;SDS011;1889;50.058;8.688;2022-12-07T04:40:53;7.53;;;5.10;;
3747;SDS011;1889;50.058;8.688;2022-12-07T04:43:22;5.05;;;4.25;;
3747;SDS011;1889;50.058;8.688;2022-12-07T04:45:51;6.50;;;4.60;;
3747;SDS011;1889;50.058;8.688;2022-12-07T04:48:21;6.87;;;5.00;;
3747;SDS011;1889;50.058;8.688;2022-12-07T04:50:50;6.97;;;4.90;;
3747;SDS011;1889;50.058;8.688;2022-12-07T04:53:19;8.03;;;4.85;;
3747;SDS011;1889;50.058;8.688;2022-12-07T04:55:48;6.10;;;4.55;;
3747;SDS011;1889;50.058;8.688;2022-12-07T04:58:18;6.50;;;4.95;;
3747;SDS011;1889;50.058;8.688;2022-12-07T05:00:47;6.72;;;4.22;;
3747;SDS011;1889;50.058;8.688;2022-12-07T05:03:16;5.67;;;4.67;;
3747;SDS011;1889;50.058;8.688;2022-12-07T05:05:46;5.67;;;4.45;;
3747;SDS011;1889;50.058;8.688;2022-12-07T05:08:15;7.45;;;4.55;;
3747;SDS011;1889;50.058;8.688;2022-12-07T05:10:44;6.62;;;4.62;;
3747;SDS011;1889;50.058;8.688;2022-12-07T05:13:14;7.37;;;4.92;;
3747;SDS011;1889;50.058;8.688;2022-12-07T05:15:43;5.70;;;4.80;;
3747;SDS011;1889;50.058;8.688;2022-12-07T05:18:12;7.17;;;4.60;;
3747;SDS011;1889;50.058;8.688;2022-12-07T05:20:42;5.97;;;4.65;;
3747;SDS011;1889;50.058;8.688;2022-12-07T05:23:12;6.65;;;5.10;;
3747;SDS011;1889;50.058;8.688;2022-12-07T05:25:41;6.65;;;4.33;;
3747;SDS011;1889;50.058;8.688;2022-12-07T05:28:10;6.97;;;4.50;;
3747;SDS011;1889;50.058;8.688;2022-12-07T05:30:40;8.70;;;5.10;;
3747;SDS011;1889;50.058;8.688;2022-12-07T05:33:09;6.42;;;4.12;;
3747;SDS011;1889;50.058;8.688;2022-12-07T05:35:39;6.92;;;4.58;;
3747;SDS011;1889;50.058;8.688;2022-12-07T05:38:08;7.67;;;4.87;;
3747;SDS011;1889;50.058;8.688;2022-12-07T05:40:37;6.85;;;4.60;;
3747;SDS011;1889;50.058;8.688;2022-12-07T05:43:06;8.18;;;4.72;;
3747;SDS011;1889;50.058;8.688;2022-12-07T05:45:36;10.45;;;5.55;;
3747;SDS011;1889;50.058;8.688;2022-12-07T05:48:05;5.80;;;4.40;;
3747;SDS011;1889;50.058;8.688;2022-12-07T05:50:34;6.58;;;4.67;;
3747;SDS011;1889;50.058;8.688;2022-12-07T05:53:04;6.87;;;4.92;;
3747;SDS011;1889;50.058;8.688;2022-12-07T05:55:33;7.12;;;4.90;;
3747;SDS011;1889;50.058;8.688;2022-12-07T05:58:02;7.85;;;4.45;;
3747;SDS011;1889;50.058;8.688;2022-12-07T06:00:49;7.55;;;4.83;;
3747;SDS011;1889;50.058;8.688;2022-12-07T06:03:19;6.15;;;4.37;;
3747;SDS011;1889;50.058;8.688;2022-12-07T06:05:48;11.03;;;4.58;;
3747;SDS011;1889;50.058;8.688;2022-12-07T06:08:17;7.60;;;4.83;;
3747;SDS011;1889;50.058;8.688;2022-12-07T06:10:47;6.62;;;5.08;;
3747;SDS011;1889;50.058;8.688;2022-12-07T06:13:18;6.95;;;4.67;;
3747;SDS011;1889;50.058;8.688;2022-12-07T06:15:48;8.40;;;4.75;;
3747;SDS011;1889;50.058;8.688;2022-12-07T06:18:17;9.05;;;5.30;;
3747;SDS011;1889;50.058;8.688;2022-12-07T06:20:47;8.25;;;5.10;;
3747;SDS011;1889;50.058;8.688;2022-12-07T06:23:16;7.35;;;5.37;;
3747;SDS011;1889;50.058;8.688;2022-12-07T06:25:45;7.65;;;5.17;;
3747;SDS011;1889;50.058;8.688;2022-12-07T06:28:15;7.17;;;4.85;;
3747;SDS011;1889;50.058;8.688;2022-12-07T06:30:44;8.30;;;6.15;;
3747;SDS011;1889;50.058;8.688;2022-12-07T06:33:13;7.78;;;5.00;;
3747;SDS011;1889;50.058;8.688;2022-12-07T06:35:43;7.55;;;4.97;;
3747;SDS011;1889;50.058;8.688;2022-12-07T06:38:12;7.15;;;5.08;;
3747;SDS011;1889;50.058;8.688;2022-12-07T06:40:41;8.25;;;5.08;;
3747;SDS011;1889;50.058;8.688;2022-12-07T06:43:11;8.80;;;5.58;;
3747;SDS011;1889;50.058;8.688;2022-12-07T06:45:40;5.62;;;4.40;;
3747;SDS011;1889;50.058;8.688;2022-12-07T06:48:10;9.05;;;5.03;;
3747;SDS011;1889;50.058;8.688;2022-12-07T06:50:39;7.45;;;5.28;;
3747;SDS011;1889;50.058;8.688;2022-12-07T06:53:09;7.05;;;4.40;;
3747;SDS011;1889;50.058;8.688;2022-12-07T06:55:38;9.75;;;5.12;;
3747;SDS011;1889;50.058;8.688;2022-12-07T06:58:07;7.37;;;5.08;;
3747;SDS011;1889;50.058;8.688;2022-12-07T07:00:37;7.55;;;5.15;;
3747;SDS011;1889;50.058;8.688;2022-12-07T07:03:06;7.97;;;5.35;;
3747;SDS011;1889;50.058;8.688;2022-12-07T07:05:35;9.55;;;5.03;;
3747;SDS011;1889;50.058;8.688;2022-12-07T07:08:05;8.03;;;4.95;;
3747;SDS011;1889;50.058;8.688;2022-12-07T07:10:34;7.35;;;5.50;;
3747;SDS011;1889;50.058;8.688;2022-12-07T07:13:04;8.75;;;5.75;;
3747;SDS011;1889;50.058;8.688;2022-12-07T07:15:34;6.72;;;4.53;;
3747;SDS011;1889;50.058;8.688;2022-12-07T07:18:04;7.22;;;5.10;;
3747;SDS011;1889;50.058;8.688;2022-12-07T07:20:34;6.40;;;5.03;;
3747;SDS011;1889;50.058;8.688;2022-12-07T07:23:04;6.87;;;4.62;;
3747;SDS011;1889;50.058;8.688;2022-12-07T07:25:33;8.68;;;5.30;;
3747;SDS011;1889;50.058;8.688;2022-12-07T07:28:03;8.05;;;5.62;;
3747;SDS011;1889;50.058;8.688;2022-12-07T07:30:32;7.28;;;5.08;;
3747;SDS011;1889;50.058;8.688;2022-12-07T07:33:02;8.30;;;5.50;;
3747;SDS011;1889;50.058;8.688;2022-12-07T07:35:33;9.23;;;6.10;;
3747;SDS011;1889;50.058;8.688;2022-12-07T07:38:02;9.63;;;5.42;;
3747;SDS011;1889;50.058;8.688;2022-12-07T07:40:32;8.90;;;6.55;;
3747;SDS011;1889;50.058;8.688;2022-12-07T07:43:01;8.35;;;6.17;;
3747;SDS011;1889;50.058;8.688;2022-12-07T07:45:30;9.78;;;4.95;;
3747;SDS011;1889;50.058;8.688;2022-12-07T07:48:00;6.72;;;5.05;;
3747;SDS011;1889;50.058;8.688;2022-12-07T07:50:29;7.30;;;5.22;;
3747;SDS011;1889;50.058;8.688;2022-12-07T07:52:58;8.45;;;5.20;;
3747;SDS011;1889;50.058;8.688;2022-12-07T07:55:27;5.80;;;4.67;;
3747;SDS011;1889;50.058;8.688;2022-12-07T07:57:57;7.67;;;5.67;;
3747;SDS011;1889;50.058;8.688;2022-12-07T08:00:26;8.70;;;5.95;;
3747;SDS011;1889;50.058;8.688;2022-12-07T08:02:55;8.78;;;5.53;;
3747;SDS011;1889;50.058;8.688;2022-12-07T08:05:25;8.30;;;5.67;;
3747;SDS011;1889;50.058;8.688;2022-12-07T08:07:54;6.85;;;5.60;;
3747;SDS011;1889;50.058;8.688;2022-12-07T08:10:25;6.97;;;4.87;;
3747;SDS011;1889;50.058;8.688;2022-12-07T08:12:54;7.60;;;5.47;;
3747;SDS011;1889;50.058;8.688;2022-12-07T08:15:39;8.25;;;5.65;;
3747;SDS011;1889;50.058;8.688;2022-12-07T08:18:10;7.78;;;4.75;;
3747;SDS011;1889;50.058;8.688;2022-12-07T08:20:40;10.20;;;5.65;;
3747;SDS011;1889;50.058;8.688;2022-12-07T08:23:10;7.22;;;5.12;;
3747;SDS011;1889;50.058;8.688;2022-12-07T08:25:40;9.18;;;5.60;;
3747;SDS011;1889;50.058;8.688;2022-12-07T08:28:09;6.55;;;4.85;;
3747;SDS011;1889;50.058;8.688;2022-12-07T08:30:38;7.97;;;5.25;;
3747;SDS011;1889;50.058;8.688;2022-12-07T08:33:08;7.08;;;5.85;;
3747;SDS011;1889;50.058;8.688;2022-12-07T08:35:38;10.30;;;5.12;;
3747;SDS011;1889;50.058;8.688;2022-12-07T08:38:08;9.88;;;5.40;;
3747;SDS011;1889;50.058;8.688;2022-12-07T08:40:37;10.70;;;5.40;;
3747;SDS011;1889;50.058;8.688;2022-12-07T08:43:06;10.53;;;5.47;;
3747;SDS011;1889;50.058;8.688;2022-12-07T08:45:35;6.45;;;4.85;;
3747;SDS011;1889;50.058;8.688;2022-12-07T08:48:07;8.35;;;5.65;;
3747;SDS011;1889;50.058;8.688;2022-12-07T08:50:39;8.63;;;5.17;;
3747;SDS011;1889;50.058;8.688;2022-12-07T08:53:09;8.03;;;5.33;;
3747;SDS011;1889;50.058;8.688;2022-12-07T08:55:38;8.48;;;5.33;;
3747;SDS011;1889;50.058;8.688;2022-12-07T08:58:08;6.92;;;5.00;;
3747;SDS011;1889;50.058;8.688;2022-12-07T09:00:38;8.38;;;5.92;;
3747;SDS011;1889;50.058;8.688;2022-12-07T09:03:07;7.05;;;6.05;;
3747;SDS011;1889;50.058;8.688;2022-12-07T09:05:36;9.18;;;5.42;;
3747;SDS011;1889;50.058;8.688;2022-12-07T09:08:06;7.78;;;5.10;;
3747;SDS011;1889;50.058;8.688;2022-12-07T09:10:36;11.00;;;5.97;;
3747;SDS011;1889;50.058;8.688;2022-12-07T09:13:05;8.98;;;5.80;;
3747;SDS011;1889;50.058;8.688;2022-12-07T09:15:35;7.90;;;5.15;;
3747;SDS011;1889;50.058;8.688;2022-12-07T09:18:04;8.88;;;5.97;;
3747;SDS011;1889;50.058;8.688;2022-12-07T09:20:33;10.28;;;5.90;;
3747;SDS011;1889;50.058;8.688;2022-12-07T09:23:05;7.72;;;5.80;;
3747;SDS011;1889;50.058;8.688;2022-12-07T09:25:34;9.00;;;6.20;;
3747;SDS011;1889;50.058;8.688;2022-12-07T09:28:04;7.12;;;5.47;;
3747;SDS011;1889;50.058;8.688;2022-12-07T09:30:34;8.43;;;5.85;;
3747;SDS011;1889;50.058;8.688;2022-12-07T09:33:04;12.45;;;6.60;;
3747;SDS011;1889;50.058;8.688;2022-12-07T09:35:33;7.45;;;5.78;;
3747;SDS011;1889;50.058;8.688;2022-12-07T09:38:02;9.13;;;6.60;;
3747;SDS011;1889;50.058;8.688;2022-12-07T09:40:32;10.10;;;5.47;;
3747;SDS011;1889;50.058;8.688;2022-12-07T09:43:02;7.25;;;5.25;;
3747;SDS011;1889;50.058;8.688;2022-12-07T09:45:35;5.83;;;4.97;;
3747;SDS011;1889;50.058;8.688;2022-12-07T09:48:05;8.70;;;5.58;;
3747;SDS011;1889;50.058;8.688;2022-12-07T09:50:36;7.95;;;5.55;;
3747;SDS011;1889;50.058;8.688;2022-12-07T09:53:08;8.50;;;5.83;;
3747;SDS011;1889;50.058;8.688;2022-12-07T09:55:38;7.35;;;5.08;;
3747;SDS011;1889;50.058;8.688;2022-12-07T09:58:20;6.72;;;5.25;;
3747;SDS011;1889;50.058;8.688;2022-12-07T10:01:01;10.85;;;5.85;;
3747;SDS011;1889;50.058;8.688;2022-12-07T10:03:27;8.38;;;5.53;;
3747;SDS011;1889;50.058;8.688;2022-12-07T10:05:56;5.80;;;4.70;;
3747;SDS011;1889;50.058;8.688;2022-12-07T10:08:26;6.45;;;4.55;;
3747;SDS011;1889;50.058;8.688;2022-12-07T10:10:56;7.70;;;4.55;;
3747;SDS011;1889;50.058;8.688;2022-12-07T10:13:41;8.08;;;4.83;;
3747;SDS011;1889;50.058;8.688;2022-12-07T10:16:37;7.25;;;4.45;;
3747;SDS011;1889;50.058;8.688;2022-12-07T10:19:23;10.53;;;6.62;;
3747;SDS011;1889;50.058;8.688;2022-12-07T10:22:05;7.45;;;5.65;;
3747;SDS011;1889;50.058;8.688;2022-12-07T10:24:46;6.20;;;4.62;;
3747;SDS011;1889;50.058;8.688;2022-12-07T10:27:30;6.03;;;4.42;;
3747;SDS011;1889;50.058;8.688;2022-12-07T10:29:51;6.22;;;4.22;;
3747;SDS011;1889;50.058;8.688;2022-12-07T10:32:29;7.78;;;4.30;;
3747;SDS011;1889;50.058;8.688;2022-12-07T10:37:52;5.87;;;4.55;;
3747;SDS011;1889;50.058;8.688;2022-12-07T10:40:33;6.40;;;4.67;;
3747;SDS011;1889;50.058;8.688;2022-12-07T10:51:18;6.05;;;4.55;;
3747;SDS011;1889;50.058;8.688;2022-12-07T11:05:02;6.03;;;4.40;;
3747;SDS011;1889;50.058;8.688;2022-12-07T11:10:15;9.50;;;4.15;;
3747;SDS011;1889;50.058;8.688;2022-12-07T11:15:45;6.40;;;3.90;;
3747;SDS011;1889;50.058;8.688;2022-12-07T11:18:14;6.45;;;4.75;;
3747;SDS011;1889;50.058;8.688;2022-12-07T11:20:53;5.62;;;4.45;;
3747;SDS011;1889;50.058;8.688;2022-12-07T11:26:15;6.53;;;4.62;;
3747;SDS011;1889;50.058;8.688;2022-12-07T11:31:57;5.12;;;3.83;;
3747;SDS011;1889;50.058;8.688;2022-12-07T11:34:38;4.75;;;3.67;;
3747;SDS011;1889;50.058;8.688;2022-12-07T11:37:21;5.17;;;3.87;;
3747;SDS011;1889;50.058;8.688;2022-12-07T11:40:03;7.12;;;4.08;;
3747;SDS011;1889;50.058;8.688;2022-12-07T11:42:41;5.72;;;3.35;;
3747;SDS011;1889;50.058;8.688;2022-12-07T11:45:12;4.60;;;3.00;;
3747;SDS011;1889;50.058;8.688;2022-12-07T11:47:46;4.67;;;3.37;;
3747;SDS011;1889;50.058;8.688;2022-12-07T11:50:45;7.33;;;3.65;;
3747;SDS011;1889;50.058;8.688;2022-12-07T11:53:16;5.12;;;3.40;;
3747;SDS011;1889;50.058;8.688;2022-12-07T12:04:13;5.58;;;2.58;;
3747;SDS011;1889;50.058;8.688;2022-12-07T12:06:40;2.30;;;2.00;;
3747;SDS011;1889;50.058;8.688;2022-12-07T12:09:18;8.03;;;2.10;;
3747;SDS011;1889;50.058;8.688;2022-12-07T12:14:59;3.95;;;2.12;;
3747;SDS011;1889;50.058;8.688;2022-12-07T12:17:48;3.30;;;2.17;;
3747;SDS011;1889;50.058;8.688;2022-12-07T12:20:55;2.67;;;2.10;;
3747;SDS011;1889;50.058;8.688;2022-12-07T12:23:09;3.87;;;1.80;;
3747;SDS011;1889;50.058;8.688;2022-12-07T12:25:45;2.30;;;1.40;;
3747;SDS011;1889;50.058;8.688;2022-12-07T12:33:45;1.98;;;1.77;;
3747;SDS011;1889;50.058;8.688;2022-12-07T12:36:22;2.70;;;1.40;;
3747;SDS011;1889;50.058;8.688;2022-12-07T12:46:56;3.83;;;1.70;;
3747;SDS011;1889;50.058;8.688;2022-12-07T12:49:36;1.90;;;1.77;;
3747;SDS011;1889;50.058;8.688;2022-12-07T12:54:59;2.40;;;1.57;;
3747;SDS011;1889;50.058;8.688;2022-12-07T12:57:39;4.25;;;1.27;;
3747;SDS011;1889;50.058;8.688;2022-12-07T13:00:21;1.85;;;1.47;;
3747;SDS011;1889;50.058;8.688;2022-12-07T13:02:54;4.75;;;2.08;;
3747;SDS011;1889;50.058;8.688;2022-12-07T13:05:27;2.55;;;1.65;;
3747;SDS011;1889;50.058;8.688;2022-12-07T13:07:58;2.58;;;1.37;;
3747;SDS011;1889;50.058;8.688;2022-12-07T13:10:33;3.17;;;1.60;;
3747;SDS011;1889;50.058;8.688;2022-12-07T13:15:55;3.92;;;1.77;;
3747;SDS011;1889;50.058;8.688;2022-12-07T13:18:38;2.55;;;1.30;;
3747;SDS011;1889;50.058;8.688;2022-12-07T13:26:18;3.50;;;1.92;;
3747;SDS011;1889;50.058;8.688;2022-12-07T13:29:03;3.58;;;1.87;;
3747;SDS011;1889;50.058;8.688;2022-12-07T13:31:32;25.32;;;15.70;;
3747;SDS011;1889;50.058;8.688;2022-12-07T13:34:03;4.05;;;2.45;;
3747;SDS011;1889;50.058;8.688;2022-12-07T13:36:37;3.00;;;2.37;;
3747;SDS011;1889;50.058;8.688;2022-12-07T13:39:19;3.35;;;1.82;;
3747;SDS011;1889;50.058;8.688;2022-12-07T13:41:51;3.58;;;1.67;;
3747;SDS011;1889;50.058;8.688;2022-12-07T13:44:23;3.55;;;1.70;;
3747;SDS011;1889;50.058;8.688;2022-12-07T13:46:55;2.87;;;2.22;;
3747;SDS011;1889;50.058;8.688;2022-12-07T13:49:27;4.20;;;2.30;;
3747;SDS011;1889;50.058;8.688;2022-12-07T13:52:13;3.08;;;1.67;;
3747;SDS011;1889;50.058;8.688;2022-12-07T13:54:49;2.75;;;1.40;;
3747;SDS011;1889;50.058;8.688;2022-12-07T13:57:20;1.32;;;1.20;;
3747;SDS011;1889;50.058;8.688;2022-12-07T13:59:50;2.92;;;1.25;;
3747;SDS011;1889;50.058;8.688;2022-12-07T14:02:28;2.50;;;1.57;;
3747;SDS011;1889;50.058;8.688;2022-12-07T14:05:14;1.42;;;1.30;;
3747;SDS011;1889;50.058;8.688;2022-12-07T14:07:53;1.75;;;1.40;;
3747;SDS011;1889;50.058;8.688;2022-12-07T14:10:37;3.22;;;2.25;;
3747;SDS011;1889;50.058;8.688;2022-12-07T14:15:55;10.48;;;5.20;;
3747;SDS011;1889;50.058;8.688;2022-12-07T14:18:36;12.90;;;5.55;;
3747;SDS011;1889;50.058;8.688;2022-12-07T14:23:47;3.50;;;1.60;;
3747;SDS011;1889;50.058;8.688;2022-12-07T14:26:20;1.30;;;1.20;;
3747;SDS011;1889;50.058;8.688;2022-12-07T14:28:50;1.90;;;1.50;;
3747;SDS011;1889;50.058;8.688;2022-12-07T14:31:21;1.80;;;1.25;;
3747;SDS011;1889;50.058;8.688;2022-12-07T14:33:52;3.65;;;1.85;;
3747;SDS011;1889;50.058;8.688;2022-12-07T14:36:21;2.25;;;1.50;;
3747;SDS011;1889;50.058;8.688;2022-12-07T14:38:51;2.45;;;1.65;;
3747;SDS011;1889;50.058;8.688;2022-12-07T14:41:22;3.27;;;1.45;;
3747;SDS011;1889;50.058;8.688;2022-12-07T14:44:10;2.25;;;1.05;;
3747;SDS011;1889;50.058;8.688;2022-12-07T14:46:40;4.83;;;1.67;;
3747;SDS011;1889;50.058;8.688;2022-12-07T14:49:10;1.72;;;1.35;;
3747;SDS011;1889;50.058;8.688;2022-12-07T14:51:39;2.70;;;1.80;;
3747;SDS011;1889;50.058;8.688;2022-12-07T14:54:13;4.45;;;1.30;;
3747;SDS011;1889;50.058;8.688;2022-12-07T14:56:46;2.77;;;1.37;;
3747;SDS011;1889;50.058;8.688;2022-12-07T14:59:18;2.17;;;1.40;;
3747;SDS011;1889;50.058;8.688;2022-12-07T15:01:48;6.62;;;1.55;;
3747;SDS011;1889;50.058;8.688;2022-12-07T15:04:17;0.80;;;0.80;;
3747;SDS011;1889;50.058;8.688;2022-12-07T15:06:59;2.55;;;1.00;;
3747;SDS011;1889;50.058;8.688;2022-12-07T15:09:30;11.97;;;7.10;;
3747;SDS011;1889;50.058;8.688;2022-12-07T15:12:00;70.40;;;29.80;;
3747;SDS011;1889;50.058;8.688;2022-12-07T15:14:30;37.83;;;15.53;;
3747;SDS011;1889;50.058;8.688;2022-12-07T15:16:59;7.92;;;4.35;;
3747;SDS011;1889;50.058;8.688;2022-12-07T15:19:28;10.70;;;6.22;;
3747;SDS011;1889;50.058;8.688;2022-12-07T15:21:57;13.95;;;9.73;;
3747;SDS011;1889;50.058;8.688;2022-12-07T15:24:27;13.05;;;8.35;;
3747;SDS011;1889;50.058;8.688;2022-12-07T15:26:57;11.97;;;9.15;;
3747;SDS011;1889;50.058;8.688;2022-12-07T15:29:27;2.67;;;2.47;;
3747;SDS011;1889;50.058;8.688;2022-12-07T15:31:56;2.45;;;2.27;;
3747;SDS011;1889;50.058;8.688;2022-12-07T15:34:26;5.75;;;1.90;;
3747;SDS011;1889;50.058;8.688;2022-12-07T15:36:55;1.90;;;1.70;;
3747;SDS011;1889;50.058;8.688;2022-12-07T15:39:25;2.58;;;2.02;;
3747;SDS011;1889;50.058;8.688;2022-12-07T15:41:54;4.35;;;1.95;;
3747;SDS011;1889;50.058;8.688;2022-12-07T15:44:23;4.85;;;2.65;;
3747;SDS011;1889;50.058;8.688;2022-12-07T15:47:10;2.72;;;2.17;;
3747;SDS011;1889;50.058;8.688;2022-12-07T15:49:39;2.77;;;2.45;;
3747;SDS011;1889;50.058;8.688;2022-12-07T15:52:09;4.60;;;2.60;;
3747;SDS011;1889;50.058;8.688;2022-12-07T15:54:38;4.45;;;3.10;;
3747;SDS011;1889;50.058;8.688;2022-12-07T15:57:07;4.45;;;2.85;;
3747;SDS011;1889;50.058;8.688;2022-12-07T15:59:37;5.78;;;4.08;;
3747;SDS011;1889;50.058;8.688;2022-12-07T16:02:07;7.45;;;4.42;;
3747;SDS011;1889;50.058;8.688;2022-12-07T16:04:37;7.03;;;4.62;;
3747;SDS011;1889;50.058;8.688;2022-12-07T16:07:07;5.65;;;4.30;;
3747;SDS011;1889;50.058;8.688;2022-12-07T16:09:38;5.40;;;3.58;;
3747;SDS011;1889;50.058;8.688;2022-12-07T16:12:08;6.25;;;3.37;;
3747;SDS011;1889;50.058;8.688;2022-12-07T16:14:37;4.90;;;3.00;;
3747;SDS011;1889;50.058;8.688;2022-12-07T16:17:08;3.95;;;2.92;;
3747;SDS011;1889;50.058;8.688;2022-12-07T16:19:38;7.33;;;3.52;;
3747;SDS011;1889;50.058;8.688;2022-12-07T16:22:07;7.03;;;3.60;;
3747;SDS011;1889;50.058;8.688;2022-12-07T16:24:37;4.33;;;3.15;;
3747;SDS011;1889;50.058;8.688;2022-12-07T16:27:06;3.30;;;3.00;;
3747;SDS011;1889;50.058;8.688;2022-12-07T16:29:35;8.18;;;4.15;;
3747;SDS011;1889;50.058;8.688;2022-12-07T16:32:05;6.40;;;3.47;;
3747;SDS011;1889;50.058;8.688;2022-12-07T16:34:34;7.42;;;4.58;;
3747;SDS011;1889;50.058;8.688;2022-12-07T16:37:03;9.20;;;3.85;;
3747;SDS011;1889;50.058;8.688;2022-12-07T16:39:33;6.67;;;4.37;;
3747;SDS011;1889;50.058;8.688;2022-12-07T16:42:02;6.75;;;3.52;;
3747;SDS011;1889;50.058;8.688;2022-12-07T16:44:32;5.97;;;3.52;;
3747;SDS011;1889;50.058;8.688;2022-12-07T16:47:01;6.70;;;2.50;;
3747;SDS011;1889;50.058;8.688;2022-12-07T16:49:30;2.87;;;1.62;;
3747;SDS011;1889;50.058;8.688;2022-12-07T16:52:00;6.03;;;1.70;;
3747;SDS011;1889;50.058;8.688;2022-12-07T16:54:29;1.70;;;1.57;;
3747;SDS011;1889;50.058;8.688;2022-12-07T16:57:00;3.27;;;1.60;;
3747;SDS011;1889;50.058;8.688;2022-12-07T16:59:29;4.08;;;2.00;;
3747;SDS011;1889;50.058;8.688;2022-12-07T17:01:59;4.72;;;2.00;;
3747;SDS011;1889;50.058;8.688;2022-12-07T17:04:28;3.58;;;2.17;;
3747;SDS011;1889;50.058;8.688;2022-12-07T17:06:58;3.47;;;2.10;;
3747;SDS011;1889;50.058;8.688;2022-12-07T17:09:27;2.75;;;1.65;;
3747;SDS011;1889;50.058;8.688;2022-12-07T17:11:56;5.62;;;1.90;;
3747;SDS011;1889;50.058;8.688;2022-12-07T17:14:26;3.50;;;2.17;;
3747;SDS011;1889;50.058;8.688;2022-12-07T17:17:12;3.83;;;1.92;;
3747;SDS011;1889;50.058;8.688;2022-12-07T17:19:42;6.05;;;2.55;;